Time;durP1;ratioP1;P1;durP2;ratioP2;P2;SDS_P1;SDS_P2;PMS_P1;PMS_P2;Temp;Humidity;BMP_temperature;BMP_pressure;BME280_temperature;BME280_humidity;BME280_pressure;Samples;Min_cycle;Max_cycle;Signal;HPM_P1;HPM_P2
2024/01/13 00:01:53;;;;;;;11.10;7.70;;;;;;;0.36;85.29;100392.41;7264433;40;20380;31
2024/01/13 00:07:13;;;;;;;9.80;6.63;;;;;;;0.37;85.12;100394.13;7216941;40;20363;31
2024/01/13 00:12:49;;;;;;;7.87;6.10;;;;;;;0.33;84.76;100389.91;7234683;40;20331;31
2024/01/13 00:18:25;;;;;;;9.80;6.10;;;;;;;0.36;85.39;100391.53;7231314;40;21591;31
2024/01/13 00:23:45;;;;;;;9.70;6.55;;;;;;;0.39;84.86;100391.41;7209409;40;20244;31
2024/01/13 00:29:06;;;;;;;9.23;6.80;;;;;;;0.40;85.26;100387.81;7181373;40;20239;31
2024/01/13 00:34:42;;;;;;;10.53;7.20;;;;;;;0.39;85.15;100388.75;7172578;40;20258;31
2024/01/13 00:40:03;;;;;;;9.37;6.10;;;;;;;0.37;85.43;100388.81;7273781;40;20342;31
2024/01/13 00:45:20;;;;;;;8.33;6.37;;;;;;;0.39;85.58;100378.16;7297217;39;20236;31
2024/01/13 00:50:57;;;;;;;7.60;5.85;;;;;;;0.39;85.61;100362.25;7279489;40;20254;31
2024/01/13 00:56:32;;;;;;;8.90;5.90;;;;;;;0.37;85.15;100350.84;7219763;40;20384;31
2024/01/13 01:02:08;;;;;;;9.00;6.13;;;;;;;0.35;84.92;100350.91;7223194;40;20263;31
2024/01/13 01:07:43;;;;;;;8.73;6.30;;;;;;;0.33;85.79;100346.63;7186719;40;20499;31
2024/01/13 01:13:04;;;;;;;8.90;6.57;;;;;;;0.38;85.06;100352.56;7206043;40;20265;31
2024/01/13 01:18:21;;;;;;;7.95;5.90;;;;;;;0.41;85.54;100344.44;7215678;40;20249;31
2024/01/13 01:23:58;;;;;;;8.50;6.25;;;;;;;0.37;85.57;100343.75;7217991;40;20262;31
2024/01/13 01:29:33;;;;;;;8.30;6.30;;;;;;;0.36;85.30;100338.50;7265776;40;21548;31
2024/01/13 01:34:54;;;;;;;8.03;6.47;;;;;;;0.37;86.05;100329.63;7219677;40;20363;31
2024/01/13 01:40:30;;;;;;;8.50;6.13;;;;;;;0.32;85.96;100336.94;7230800;40;20258;31
2024/01/13 01:51:06;;;;;;;10.20;7.47;;;;;;;0.26;86.71;100326.66;7276009;40;21343;31
2024/01/13 01:56:40;;;;;;;10.50;7.73;;;;;;;0.20;86.77;100317.19;7271696;39;20322;31
2024/01/13 02:02:16;;;;;;;10.70;7.35;;;;;;;0.19;86.64;100310.19;7233795;40;20305;31
2024/01/13 02:07:50;;;;;;;9.50;7.55;;;;;;;0.21;86.27;100308.31;7218652;40;20242;31
2024/01/13 02:13:26;;;;;;;11.20;8.23;;;;;;;0.21;87.06;100296.84;7197032;40;20514;31
2024/01/13 02:24:06;;;;;;;11.83;8.27;;;;;;;0.19;87.32;100294.28;7207818;40;20700;31
2024/01/13 02:29:41;;;;;;;12.25;8.90;;;;;;;0.26;86.77;100289.53;7239059;40;20258;31
2024/01/13 02:35:02;;;;;;;12.90;8.65;;;;;;;0.27;86.97;100297.41;7249419;40;20323;31
2024/01/13 02:40:35;;;;;;;11.40;8.15;;;;;;;0.21;86.76;100288.91;7277452;39;20260;31
2024/01/13 02:45:56;;;;;;;12.37;8.03;;;;;;;0.28;86.63;100275.25;7200187;40;20312;31
2024/01/13 02:51:32;;;;;;;11.95;8.80;;;;;;;0.23;86.31;100253.41;7217729;40;20253;31
2024/01/13 02:57:07;;;;;;;13.30;9.17;;;;;;;0.23;87.00;100252.56;7206671;40;21503;31
2024/01/13 03:02:53;;;;;;;13.10;9.00;;;;;;;0.25;86.92;100242.75;7157979;40;20240;31
2024/01/13 03:13:45;;;;;;;13.67;9.70;;;;;;;0.25;86.44;100242.75;7222251;40;21345;31
2024/01/13 03:24:24;;;;;;;14.57;10.17;;;;;;;0.33;86.70;100232.63;7296569;39;20893;31
2024/01/13 03:29:57;;;;;;;16.73;11.00;;;;;;;0.29;86.45;100236.34;7257692;40;20249;31
2024/01/13 03:40:18;;;;;;;19.50;11.30;;;;;;;0.21;88.10;100234.09;7215470;40;21280;31
2024/01/13 03:50:59;;;;;;;23.47;13.23;;;;;;;0.16;87.40;100219.34;7232719;40;20254;31
2024/01/13 03:56:34;;;;;;;20.35;11.90;;;;;;;0.21;87.32;100217.34;7257378;40;20327;31
2024/01/13 04:01:54;;;;;;;19.10;12.63;;;;;;;0.25;87.50;100216.25;7238216;40;20272;31
2024/01/13 04:07:26;;;;;;;20.10;12.60;;;;;;;0.20;87.53;100210.31;7094021;40;21134;31
2024/01/13 04:13:01;;;;;;;22.60;13.00;;;;;;;0.19;87.60;100200.63;7251315;39;20350;31
2024/01/13 04:18:21;;;;;;;21.33;13.27;;;;;;;0.21;87.67;100197.00;7198913;40;20354;31
2024/01/13 04:29:02;;;;;;;24.37;13.83;;;;;;;0.18;87.00;100202.41;7229658;39;20261;31
2024/01/13 04:39:26;;;;;;;25.93;14.83;;;;;;;0.20;87.79;100215.62;7231278;40;20702;31
2024/01/13 04:45:03;;;;;;;25.90;14.90;;;;;;;0.24;87.64;100206.56;7179357;40;20243;31
2024/01/13 04:50:38;;;;;;;25.37;14.17;;;;;;;0.16;88.04;100206.09;7158437;40;20333;31
2024/01/13 04:56:13;;;;;;;25.25;14.45;;;;;;;0.11;88.48;100198.38;7220427;40;20304;31
2024/01/13 05:01:49;;;;;;;25.80;15.10;;;;;;;0.11;88.23;100198.38;7199184;40;20255;31
2024/01/13 05:07:09;;;;;;;27.13;15.27;;;;;;;0.15;88.42;100201.72;7187542;40;20249;31
2024/01/13 05:12:44;;;;;;;26.43;14.90;;;;;;;0.19;88.38;100195.34;7283792;39;20238;31
2024/01/13 05:18:21;;;;;;;29.37;15.80;;;;;;;0.12;88.58;100186.00;7186054;40;20243;31
2024/01/13 05:23:56;;;;;;;29.80;16.00;;;;;;;0.14;87.99;100186.75;7197695;40;20257;31
2024/01/13 05:29:29;;;;;;;25.37;14.47;;;;;;;0.10;88.27;100203.75;7198360;40;20263;31
2024/01/13 05:35:05;;;;;;;29.85;16.70;;;;;;;0.08;88.15;100200.34;7189496;40;20340;31
2024/01/13 05:40:25;;;;;;;31.63;15.57;;;;;;;0.12;88.69;100196.59;7211310;40;20260;31
2024/01/13 05:51:06;;;;;;;25.47;15.30;;;;;;;0.14;88.27;100160.25;7230639;39;20709;31
2024/01/13 05:56:26;;;;;;;26.45;14.60;;;;;;;0.22;88.06;100150.13;7256514;40;20239;31
2024/01/13 06:01:47;;;;;;;26.70;14.00;;;;;;;0.23;87.93;100151.84;7276268;39;20335;31
2024/01/13 06:12:22;;;;;;;26.20;14.63;;;;;;;0.19;87.90;100151.12;7298626;39;20474;31
2024/01/13 06:17:41;;;;;;;22.70;13.63;;;;;;;0.26;87.45;100141.94;7325227;39;20240;31
2024/01/13 06:23:01;;;;;;;22.97;13.87;;;;;;;0.26;87.88;100146.41;7310060;39;20345;31
2024/01/13 06:28:35;;;;;;;23.50;12.55;;;;;;;0.20;87.85;100146.69;7323645;39;20321;31
2024/01/13 06:34:10;;;;;;;23.70;14.05;;;;;;;0.18;87.47;100135.31;7227399;40;20474;31
2024/01/13 06:39:45;;;;;;;23.73;13.13;;;;;;;0.23;87.67;100138.56;7230349;40;20348;31
2024/01/13 06:45:22;;;;;;;22.75;12.45;;;;;;;0.21;87.64;100137.81;7248748;40;20239;31
2024/01/13 06:50:42;;;;;;;24.70;13.20;;;;;;;0.17;87.67;100120.34;7280491;39;20264;31
2024/01/13 06:56:16;;;;;;;24.47;13.43;;;;;;;0.21;87.31;100129.88;7288725;39;20261;31
2024/01/13 07:06:57;;;;;;;24.77;13.20;;;;;;;0.16;87.69;100123.94;7287743;40;20735;31
2024/01/13 07:12:17;;;;;;;25.70;13.50;;;;;;;0.23;87.68;100109.41;7214816;40;20251;31
2024/01/13 07:17:53;;;;;;;27.23;14.60;;;;;;;0.23;87.54;100102.31;7250675;40;20246;31
2024/01/13 07:23:29;;;;;;;27.03;13.27;;;;;;;0.14;87.40;100102.81;7175844;40;20309;31
2024/01/13 07:29:04;;;;;;;22.67;13.67;;;;;;;0.03;87.83;100096.34;7167565;40;20247;31
2024/01/13 07:34:39;;;;;;;23.40;13.45;;;;;;;-0.05;88.48;100092.31;7133660;40;20373;31
2024/01/13 07:40:17;;;;;;;25.90;13.80;;;;;;;-0.02;88.18;100100.09;7163360;40;20242;31
2024/01/13 07:45:24;;;;;;;45.03;24.30;;;;;;;-0.07;87.76;100125.09;7165575;40;20265;31
2024/01/13 07:51:00;;;;;;;26.83;16.07;;;;;;;-0.04;88.54;100111.69;7210279;40;20362;31
2024/01/13 07:56:37;;;;;;;22.67;13.33;;;;;;;0.06;88.06;100122.69;7197542;40;20246;31
2024/01/13 08:02:11;;;;;;;24.73;14.60;;;;;;;0.14;87.66;100129.31;7149243;40;20275;31
2024/01/13 08:07:46;;;;;;;22.80;13.07;;;;;;;0.22;87.29;100113.03;7140435;40;20322;31
2024/01/13 08:13:22;;;;;;;24.60;13.90;;;;;;;0.16;87.24;100116.00;7170676;40;20238;31
2024/01/13 08:18:57;;;;;;;21.95;12.80;;;;;;;0.17;87.04;100115.06;7192857;40;20265;31
2024/01/13 08:24:18;;;;;;;23.45;13.05;;;;;;;0.19;87.12;100114.03;7200880;40;20229;31
2024/01/13 08:29:53;;;;;;;22.03;12.87;;;;;;;0.24;86.88;100119.94;7223356;40;20915;31
2024/01/13 08:35:26;;;;;;;22.95;13.10;;;;;;;0.30;86.11;100137.34;7201028;40;20243;31
2024/01/13 08:40:47;;;;;;;21.40;14.47;;;;;;;0.32;86.22;100140.75;7185595;40;20444;31
2024/01/13 08:46:22;;;;;;;18.80;12.60;;;;;;;0.29;86.50;100125.03;7226049;40;20242;31
2024/01/13 08:51:57;;;;;;;17.70;11.53;;;;;;;0.30;86.02;100126.75;7244450;40;20273;31
2024/01/13 09:02:39;;;;;;;19.47;10.83;;;;;;;0.24;86.17;100145.59;7297982;40;20655;31
2024/01/13 09:08:12;;;;;;;20.47;12.60;;;;;;;0.34;85.82;100150.38;7275607;40;20288;31
2024/01/13 09:18:47;;;;;;;18.47;10.47;;;;;;;0.37;85.88;100131.63;7278314;40;21265;31
2024/01/13 09:24:22;;;;;;;57.85;27.30;;;;;;;0.37;84.84;100120.16;7278210;40;20241;31
2024/01/13 09:29:39;;;;;;;13.80;8.60;;;;;;;0.36;83.91;100114.00;7282772;39;20260;31
2024/01/13 09:35:15;;;;;;;13.43;8.57;;;;;;;0.33;84.32;100100.06;7240422;40;20252;31
2024/01/13 09:40:51;;;;;;;6.70;5.10;;;;;;;0.30;83.86;100101.09;7189531;40;20250;31
2024/01/13 09:46:11;;;;;;;5.03;3.93;;;;;;;0.33;83.64;100105.37;7196159;40;21444;31
2024/01/13 09:56:51;;;;;;;5.25;3.45;;;;;;;0.24;83.08;100114.66;7242777;40;20894;31
2024/01/13 10:07:14;;;;;;;4.95;3.40;;;;;;;0.36;82.83;100115.78;7305457;39;20394;31
2024/01/13 10:12:48;;;;;;;5.07;3.63;;;;;;;0.37;82.92;100089.22;7274844;39;20276;31
2024/01/13 10:18:08;;;;;;;4.55;3.25;;;;;;;0.40;82.29;100086.41;7225795;40;20416;31
2024/01/13 10:23:43;;;;;;;5.53;3.70;;;;;;;0.34;82.59;100054.94;7218560;40;20458;31
2024/01/13 10:29:19;;;;;;;4.80;3.60;;;;;;;0.28;81.71;100051.72;7178222;40;20244;31
2024/01/13 10:34:54;;;;;;;4.85;3.45;;;;;;;0.31;81.76;100051.56;7162855;40;20306;31
2024/01/13 10:40:14;;;;;;;4.17;3.03;;;;;;;0.34;82.31;100065.53;7182876;40;20228;31
2024/01/13 10:45:48;;;;;;;4.73;3.57;;;;;;;0.26;81.16;100014.72;7223569;40;20245;31
2024/01/13 10:51:20;;;;;;;5.87;3.70;;;;;;;0.23;81.23;100003.41;6997809;40;21201;31
2024/01/13 10:56:55;;;;;;;5.57;3.97;;;;;;;0.17;80.66;99985.19;7178114;40;20247;31
2024/01/13 11:02:33;;;;;;;6.15;4.15;;;;;;;0.17;81.45;99979.88;7152416;40;20325;31
2024/01/13 11:08:06;;;;;;;5.25;3.60;;;;;;;0.22;81.87;99977.84;7199206;40;20318;31
2024/01/13 11:13:42;;;;;;;4.53;3.20;;;;;;;0.28;81.78;99991.63;7177858;40;20251;31
2024/01/13 11:24:20;;;;;;;7.70;3.70;;;;;;;0.23;80.75;99980.41;7261538;40;21154;31
2024/01/13 11:29:56;;;;;;;6.80;4.20;;;;;;;0.12;80.86;99942.19;7240559;40;20246;31
2024/01/13 11:35:12;;;;;;;5.60;3.90;;;;;;;0.14;80.79;99938.50;7211912;40;21340;31
2024/01/13 11:40:49;;;;;;;5.07;3.60;;;;;;;0.12;80.90;99948.34;7197991;40;20253;31
2024/01/13 11:46:25;;;;;;;6.83;3.77;;;;;;;0.08;80.68;99943.28;7231995;40;20661;31
2024/01/13 11:52:10;;;;;;;7.87;4.00;;;;;;;0.08;80.35;99932.69;7258313;39;20245;31
2024/01/13 11:57:47;;;;;;;6.00;3.80;;;;;;;0.10;81.01;99912.25;7229356;40;20328;31
2024/01/13 12:03:23;;;;;;;7.13;4.63;;;;;;;0.08;80.54;99883.19;7218867;40;20245;31
2024/01/13 12:09:07;;;;;;;5.80;4.50;;;;;;;0.02;80.83;99858.81;7191115;40;21405;31
2024/01/13 12:14:44;;;;;;;7.40;5.30;;;;;;;-0.04;80.55;99847.59;7218131;40;20257;31
2024/01/13 12:20:20;;;;;;;10.23;5.50;;;;;;;-0.08;80.38;99848.72;7198242;40;20285;31
2024/01/13 12:31:01;;;;;;;9.57;5.70;;;;;;;-0.06;80.89;99838.91;7227868;40;20547;31
2024/01/13 12:36:36;;;;;;;10.63;6.47;;;;;;;0.04;80.66;99841.03;7241664;39;20268;31
2024/01/13 12:47:17;;;;;;;11.80;6.80;;;;;;;0.03;80.03;99823.44;7213058;40;20970;31
2024/01/13 12:52:53;;;;;;;9.80;6.00;;;;;;;0.01;80.40;99839.41;7205572;40;20246;31
2024/01/13 12:58:14;;;;;;;10.10;6.73;;;;;;;0.07;80.61;99844.38;7207145;40;20242;31
2024/01/13 13:03:50;;;;;;;13.80;7.70;;;;;;;0.09;80.78;99837.19;7279960;40;20261;31
2024/01/13 13:09:25;;;;;;;9.70;7.25;;;;;;;0.18;80.39;99827.84;7267860;40;20391;31
2024/01/13 13:14:46;;;;;;;10.47;6.80;;;;;;;0.28;80.27;99829.06;7197406;40;20316;31
2024/01/13 13:20:23;;;;;;;11.85;7.70;;;;;;;0.28;80.28;99814.00;7195116;40;20320;31
2024/01/13 13:25:59;;;;;;;12.77;8.00;;;;;;;0.18;79.62;99825.22;7204257;40;20339;31
2024/01/13 13:36:40;;;;;;;12.70;8.97;;;;;;;0.24;79.92;99808.97;7235816;40;20403;31
2024/01/13 13:47:17;;;;;;;20.10;12.23;;;;;;;0.26;79.70;99785.91;7260390;39;21334;31
2024/01/13 13:57:55;;;;;;;16.74;10.86;;;;;;;0.11;80.44;99778.81;7297443;39;21297;31
2024/01/13 14:08:20;;;;;;;18.17;12.57;;;;;;;0.17;80.18;99771.38;7303080;39;20750;31
2024/01/13 14:13:57;;;;;;;18.10;12.15;;;;;;;0.28;80.18;99768.09;7298326;39;20269;31
2024/01/13 14:19:19;;;;;;;18.65;12.95;;;;;;;0.29;79.96;99772.47;7280219;39;20360;31
2024/01/13 14:24:39;;;;;;;19.63;13.27;;;;;;;0.30;79.91;99769.72;7218783;40;20463;31
2024/01/13 14:30:15;;;;;;;18.50;12.70;;;;;;;0.31;79.48;99759.97;7227708;40;20353;31
2024/01/13 14:35:36;;;;;;;18.85;12.45;;;;;;;0.25;79.48;99770.94;7262275;39;20231;31
2024/01/13 14:41:11;;;;;;;17.60;12.40;;;;;;;0.19;79.48;99789.81;7263673;40;20390;31
2024/01/13 14:46:45;;;;;;;22.40;14.05;;;;;;;0.15;79.64;99773.25;7161045;39;20355;31
2024/01/13 14:52:08;;;;;;;24.70;16.03;;;;;;;0.24;80.28;99772.72;7272875;39;21486;31
2024/01/13 15:02:46;;;;;;;27.43;17.50;;;;;;;0.28;79.80;99758.34;7297997;39;20652;31
2024/01/13 15:08:22;;;;;;;28.60;17.73;;;;;;;0.30;79.58;99758.28;7268475;40;20276;31
2024/01/13 15:19:03;;;;;;;28.83;19.23;;;;;;;0.21;79.10;99740.25;7337368;39;20707;31
2024/01/13 15:29:27;;;;;;;29.87;19.33;;;;;;;0.27;79.29;99730.12;7257869;40;21251;31
2024/01/13 15:40:04;;;;;;;32.60;18.90;;;;;;;0.20;79.78;99738.53;7294423;39;20690;31
2024/01/13 15:45:38;;;;;;;31.23;19.07;;;;;;;0.21;79.81;99757.00;7279189;40;20242;31
2024/01/13 15:50:56;;;;;;;32.27;19.40;;;;;;;0.26;80.06;99752.31;7205223;40;21297;31
2024/01/13 15:56:33;;;;;;;34.10;19.40;;;;;;;0.14;79.65;99733.56;7197739;40;20242;31
2024/01/13 16:01:55;;;;;;;29.80;19.00;;;;;;;0.22;80.02;99737.47;7148029;40;20250;31
2024/01/13 16:07:29;;;;;;;32.27;19.73;;;;;;;0.29;79.36;99743.31;7177232;40;20246;31
2024/01/13 16:13:08;;;;;;;31.20;19.17;;;;;;;0.24;79.67;99756.81;7185473;40;20253;31
2024/01/13 16:18:42;;;;;;;31.97;19.17;;;;;;;0.35;79.66;99753.56;7169302;40;20262;31
2024/01/13 16:24:19;;;;;;;31.13;18.77;;;;;;;0.38;79.72;99742.78;7238714;40;20299;31
2024/01/13 16:29:55;;;;;;;32.27;18.67;;;;;;;0.36;79.76;99737.53;7195039;40;20258;31
2024/01/13 16:35:17;;;;;;;31.93;19.03;;;;;;;0.25;79.91;99737.34;7176877;40;20243;31
2024/01/13 16:40:37;;;;;;;30.50;18.00;;;;;;;0.22;79.87;99736.66;7205520;40;20361;31
2024/01/13 16:46:13;;;;;;;32.70;17.65;;;;;;;0.14;80.17;99733.56;7236639;40;20256;31
2024/01/13 16:51:34;;;;;;;30.20;19.00;;;;;;;0.10;80.04;99740.84;7234362;40;20224;31
2024/01/13 16:57:10;;;;;;;31.73;19.40;;;;;;;0.06;80.41;99725.22;7296865;39;20259;31
2024/01/13 17:02:47;;;;;;;28.33;17.17;;;;;;;0.04;79.99;99729.75;7259706;39;20359;31
2024/01/13 17:08:08;;;;;;;30.77;18.50;;;;;;;0.06;80.46;99720.78;7206285;40;20238;31
2024/01/13 17:13:28;;;;;;;31.35;18.30;;;;;;;0.02;80.70;99719.25;7197396;40;20388;31
2024/01/13 17:19:04;;;;;;;29.75;18.10;;;;;;;0.06;80.23;99704.00;7214034;40;20220;31
2024/01/13 17:24:25;;;;;;;29.00;17.00;;;;;;;0.05;80.51;99715.56;7246773;40;20242;31
2024/01/13 17:29:45;;;;;;;28.00;17.55;;;;;;;0.06;80.33;99710.16;7238789;40;20323;31
2024/01/13 17:35:22;;;;;;;25.90;16.40;;;;;;;0.08;80.34;99708.31;7262153;40;20263;31
2024/01/13 17:40:57;;;;;;;28.55;15.80;;;;;;;0.06;80.80;99694.28;7253277;40;20231;31
2024/01/13 17:46:17;;;;;;;26.45;16.80;;;;;;;0.04;80.35;99684.72;7220787;40;20344;31
2024/01/13 17:51:53;;;;;;;28.73;17.23;;;;;;;0.01;80.15;99669.84;7233973;40;20257;31
2024/01/13 18:02:18;;;;;;;31.73;17.67;;;;;;;0.10;80.25;99676.41;7227381;40;20744;31
2024/01/13 18:07:54;;;;;;;27.53;16.00;;;;;;;0.11;80.28;99664.84;7056058;40;21279;31
2024/01/13 18:13:15;;;;;;;23.70;15.80;;;;;;;0.08;80.11;99657.97;7231749;40;20351;31
2024/01/13 18:18:51;;;;;;;25.75;15.85;;;;;;;0.00;80.54;99639.84;7258572;40;20254;31
2024/01/13 18:24:25;;;;;;;26.07;15.90;;;;;;;0.06;79.98;99625.38;7224121;40;20314;31
2024/01/13 18:29:44;;;;;;;25.60;15.40;;;;;;;0.03;80.37;99625.56;7254075;40;20331;31
2024/01/13 18:35:05;;;;;;;26.40;15.30;;;;;;;-0.01;79.88;99619.59;7275014;39;20269;31
2024/01/13 18:45:46;;;;;;;28.60;17.83;;;;;;;-0.06;80.43;99611.06;7287413;39;20900;31
2024/01/13 18:51:05;;;;;;;24.10;14.43;;;;;;;-0.02;80.07;99622.34;7306899;39;20768;31
2024/01/13 18:56:42;;;;;;;26.15;15.50;;;;;;;-0.11;80.72;99634.31;7287112;39;20315;31
2024/01/13 19:02:17;;;;;;;24.03;13.97;;;;;;;-0.05;80.42;99646.38;7256131;40;20254;31
2024/01/13 19:07:38;;;;;;;25.17;14.97;;;;;;;0.04;80.61;99676.78;7195940;40;20292;31
2024/01/13 19:13:13;;;;;;;24.23;14.70;;;;;;;0.05;80.49;99686.41;7216807;40;20246;31
2024/01/13 19:18:50;;;;;;;25.60;15.70;;;;;;;-0.20;80.66;99684.31;7238699;40;20261;31
2024/01/13 19:24:07;;;;;;;26.35;14.95;;;;;;;-0.09;80.54;99681.94;7204262;40;21374;31
2024/01/13 19:29:27;;;;;;;22.70;13.65;;;;;;;-0.09;80.42;99676.62;7161550;40;20695;31
2024/01/13 19:35:03;;;;;;;23.05;14.60;;;;;;;-0.07;80.48;99680.03;7205570;40;20391;31
2024/01/13 19:40:38;;;;;;;23.70;13.90;;;;;;;-0.09;80.39;99688.06;7242875;39;20759;31
2024/01/13 19:45:58;;;;;;;23.80;15.45;;;;;;;-0.02;80.17;99680.63;7261709;40;20231;31
2024/01/13 19:51:35;;;;;;;24.57;14.97;;;;;;;-0.01;80.13;99688.50;7258366;40;20231;31
2024/01/13 19:57:10;;;;;;;22.87;14.57;;;;;;;0.06;79.90;99688.97;7214620;40;20258;31
2024/01/13 20:02:30;;;;;;;23.93;15.63;;;;;;;0.12;80.22;99688.63;7159431;40;20354;31
2024/01/13 20:13:11;;;;;;;24.17;15.87;;;;;;;0.17;79.58;99662.72;7164006;40;20839;31
2024/01/13 20:18:46;;;;;;;23.93;16.00;;;;;;;0.18;79.24;99661.75;7220981;39;20276;31
2024/01/13 20:24:22;;;;;;;24.10;15.97;;;;;;;0.07;79.65;99658.91;7197311;40;20803;31
2024/01/13 20:29:57;;;;;;;23.00;15.45;;;;;;;-0.01;79.56;99640.81;7218165;40;20254;31
2024/01/13 20:35:17;;;;;;;25.23;16.23;;;;;;;0.06;80.09;99645.72;7197006;40;20262;31
2024/01/13 20:40:53;;;;;;;25.70;15.77;;;;;;;0.07;79.89;99642.13;7183013;40;20329;31
2024/01/13 20:46:29;;;;;;;26.00;16.33;;;;;;;0.05;80.24;99630.75;7166122;40;20277;31
2024/01/13 20:51:49;;;;;;;29.40;17.35;;;;;;;0.03;79.94;99635.31;7229792;40;20261;31
2024/01/13 20:57:24;;;;;;;28.65;18.65;;;;;;;0.11;79.77;99638.34;7267908;39;20250;31
2024/01/13 21:03:00;;;;;;;32.20;20.90;;;;;;;0.03;79.69;99625.56;7236152;40;20749;31
2024/01/13 21:08:33;;;;;;;27.20;16.50;;;;;;;0.06;79.60;99609.50;7228483;40;20265;31
2024/01/13 21:13:54;;;;;;;28.17;18.30;;;;;;;0.07;80.37;99605.91;7218514;40;20266;31
2024/01/13 21:19:29;;;;;;;27.50;16.63;;;;;;;-0.04;79.78;99579.16;7198728;40;20350;31
2024/01/13 21:25:07;;;;;;;23.95;15.20;;;;;;;-0.04;79.91;99573.87;7197486;40;20321;31
2024/01/13 21:30:24;;;;;;;26.97;17.03;;;;;;;-0.08;80.32;99570.56;7214957;40;21519;31
2024/01/13 21:36:02;;;;;;;25.10;15.75;;;;;;;-0.13;79.86;99561.16;7200779;40;20257;31
2024/01/13 21:41:36;;;;;;;25.74;16.24;;;;;;;-0.19;80.26;99558.91;7241421;40;20475;31
2024/01/13 21:47:11;;;;;;;22.50;15.13;;;;;;;-0.21;80.67;99539.59;7166438;40;20255;31
2024/01/13 21:52:47;;;;;;;25.55;15.70;;;;;;;-0.15;79.79;99544.53;7229566;40;20264;31
2024/01/13 21:58:22;;;;;;;29.80;17.67;;;;;;;-0.15;80.12;99542.75;7146687;40;20695;31
2024/01/13 22:03:57;;;;;;;32.83;18.43;;;;;;;-0.22;80.80;99529.97;7167507;40;20284;31
2024/01/13 22:14:37;;;;;;;29.07;17.17;;;;;;;-0.37;79.79;99522.91;7170136;40;20278;31
2024/01/13 22:20:12;;;;;;;24.63;15.20;;;;;;;-0.42;80.65;99527.63;7221857;40;20260;31
2024/01/13 22:25:33;;;;;;;25.20;16.00;;;;;;;-0.41;80.50;99508.16;7231682;40;20272;31
2024/01/13 22:31:09;;;;;;;29.20;15.80;;;;;;;-0.40;81.33;99499.28;7278743;40;20261;31
2024/01/13 22:36:45;;;;;;;25.50;15.45;;;;;;;-0.30;80.88;99495.97;7300267;39;20261;31
2024/01/13 22:42:20;;;;;;;27.47;16.33;;;;;;;-0.35;80.29;99487.44;7225847;40;20257;31
2024/01/13 22:47:56;;;;;;;25.25;14.65;;;;;;;-0.29;80.24;99487.09;7211726;40;20318;31
2024/01/13 22:53:31;;;;;;;24.30;14.20;;;;;;;-0.23;80.00;99483.22;7198107;40;20242;31
2024/01/13 22:59:07;;;;;;;26.85;15.20;;;;;;;-0.39;80.02;99487.72;7186469;40;20247;31
2024/01/13 23:04:42;;;;;;;25.00;14.00;;;;;;;-0.43;80.63;99475.59;7211770;40;20305;31
2024/01/13 23:10:17;;;;;;;26.03;14.60;;;;;;;-0.40;80.11;99473.66;7185893;40;20235;31
2024/01/13 23:15:39;;;;;;;24.65;14.65;;;;;;;-0.46;80.59;99471.34;7229644;40;21479;31
2024/01/13 23:21:15;;;;;;;26.00;14.50;;;;;;;-0.53;80.68;99456.78;7248038;39;20339;31
2024/01/13 23:26:51;;;;;;;24.65;13.65;;;;;;;-0.56;81.19;99435.78;7226127;40;20246;31
2024/01/13 23:32:25;;;;;;;27.10;14.20;;;;;;;-0.57;81.66;99424.34;7260830;40;20306;31
2024/01/13 23:38:03;;;;;;;26.30;14.40;;;;;;;-0.53;80.54;99419.75;7228185;40;20246;31
2024/01/13 23:43:38;;;;;;;26.30;14.87;;;;;;;-0.41;80.67;99413.69;7220296;40;20333;31
2024/01/13 23:49:01;;;;;;;28.50;15.50;;;;;;;-0.35;80.76;99417.78;7158597;40;20247;31
2024/01/13 23:54:34;;;;;;;26.50;14.27;;;;;;;-0.44;81.25;99415.69;7168505;40;20693;31
